Overview Statistics Trail Chart Weather Telemetry Raw packets
 

This is the latest recevied weather packets stored in our database for station/object KI4NG. If no packets are shown the sender has not sent any weather packets the latest 10 day(s).

<< 97 98 99 100 101 102 103 >>
Time Temp. Humidity Pressure Rain* Wind** Luminosity Snow
1787895087 20.56° C 94% 1017.9 hPa 0 mm - 0 W/m² -
1787894783 20.56° C 94% 1017.9 hPa 0 mm - 0 W/m² -
1787894479 20.56° C 94% 1017.9 hPa 0 mm - 0 W/m² -
1787894178 20.56° C 94% 1017.9 hPa 0 mm - 0 W/m² -
1787893874 21.11° C 94% 1017.8 hPa 0 mm - 0 W/m² -
1787893570 21.11° C 93% 1017.9 hPa 0 mm - 0 W/m² -
1787893265 20.56° C 94% 1017.9 hPa 0 mm - 0 W/m² -
1787892961 20° C 96% 1018 hPa 0 mm - 0 W/m² -
1787892658 20° C 97% 1017.8 hPa 0 mm - 0 W/m² -
1787892354 20° C 97% 1018 hPa 0 mm - 0 W/m² -
1787892049 20.56° C 97% 1018 hPa 0 mm - 0 W/m² -
1787891744 20.56° C 97% 1017.9 hPa 0 mm - 0 W/m² -
1787891440 20.56° C 96% 1017.7 hPa 0 mm - 0 W/m² -
1787891139 20.56° C 95% 1017.6 hPa 0 mm - 0 W/m² -
1787890834 20.56° C 95% 1017.9 hPa 0 mm - 0 W/m² -
1787890533 21.11° C 93% 1017.8 hPa 0 mm - 0 W/m² -
1787890229 21.67° C 90% 1017.6 hPa 0 mm - 0 W/m² -
1787889924 21.67° C 89% 1017.7 hPa 0 mm - 0 W/m² -
1787889619 22.22° C 88% 1017.8 hPa 0 mm - 0 W/m² -
1787889314 22.22° C 87% 1017.7 hPa 0 mm - 0 W/m² -
1787889013 21.67° C 87% 1017.9 hPa 0 mm - 0 W/m² -
1787888708 22.22° C 87% 1018 hPa 0 mm - 0 W/m² -
1787888403 22.22° C 87% 1017.9 hPa 0 mm - 0 W/m² -
1787888098 22.22° C 88% 1017.9 hPa 0 mm - 0 W/m² -
1787887794 21.67° C 89% 1017.6 hPa 0 mm - 0 W/m² -

* Rain latest hour (hover to see other rain measurements)
** Current wind speed in m/s (hover to see current wind gust speed)